Time;durP1;ratioP1;P1;durP2;ratioP2;P2;SDS_P1;SDS_P2;PMS_P1;PMS_P2;Temp;Humidity;BMP_temperature;BMP_pressure;BME280_temperature;BME280_humidity;BME280_pressure;Samples;Min_cycle;Max_cycle;Signal;HPM_P1;HPM_P2
2022/06/11 00:00:40;;;;;;;8.17;2.23;;;;;;;21.11;55.40;100799.94;5090830;28;20499;-70
2022/06/11 00:03:07;;;;;;;6.00;2.30;;;;;;;21.04;55.86;100799.91;5095899;28;20460;-69
2022/06/11 00:05:34;;;;;;;7.50;2.40;;;;;;;21.12;55.40;100801.63;5097505;28;20459;-70
2022/06/11 00:08:01;;;;;;;6.80;2.20;;;;;;;21.04;55.47;100798.03;5096241;28;20458;-68
2022/06/11 00:10:28;;;;;;;5.17;2.77;;;;;;;20.95;55.82;100801.06;5082036;28;20468;-68
2022/06/11 00:12:54;;;;;;;4.27;2.17;;;;;;;20.97;55.77;100799.84;5087671;28;20500;-68
2022/06/11 00:15:23;;;;;;;3.97;2.60;;;;;;;20.94;56.06;100799.41;5099267;28;20513;-72
2022/06/11 00:17:51;;;;;;;4.00;2.60;;;;;;;20.97;55.88;100797.13;5086615;28;20904;-72
2022/06/11 00:20:18;;;;;;;8.50;2.37;;;;;;;20.84;55.94;100797.00;5091476;28;20458;-71
2022/06/11 00:22:45;;;;;;;5.47;2.70;;;;;;;20.85;55.86;100793.25;5086727;28;20511;-72
2022/06/11 00:25:12;;;;;;;5.57;2.23;;;;;;;20.88;56.02;100799.16;5081803;28;20432;-73
2022/06/11 00:27:39;;;;;;;6.20;2.57;;;;;;;20.88;55.94;100785.56;5073285;28;20476;-71
2022/06/11 00:30:08;;;;;;;7.40;2.50;;;;;;;20.90;55.99;100792.66;5081140;28;20463;-73
2022/06/11 00:32:36;;;;;;;9.87;2.63;;;;;;;20.97;55.87;100783.53;5074429;28;20461;-74
2022/06/11 00:35:03;;;;;;;3.80;2.70;;;;;;;20.88;56.43;100785.56;5080670;28;20480;-72
2022/06/11 00:37:30;;;;;;;9.30;2.40;;;;;;;20.79;56.37;100785.88;5075384;28;20483;-72
2022/06/11 00:39:57;;;;;;;4.30;2.30;;;;;;;20.74;56.80;100785.63;5062036;28;20433;-72
2022/06/11 00:42:27;;;;;;;5.30;2.90;;;;;;;20.75;56.56;100781.88;5066190;28;20530;-72
2022/06/11 00:45:13;;;;;;;6.03;2.63;;;;;;;20.68;57.24;100779.91;5060717;28;20451;-72
2022/06/11 00:47:41;;;;;;;5.33;2.60;;;;;;;20.78;56.84;100778.75;5076189;28;20464;-72
2022/06/11 00:50:17;;;;;;;4.27;2.73;;;;;;;20.72;56.95;100782.25;5070962;28;20449;-72
2022/06/11 00:52:45;;;;;;;9.73;2.70;;;;;;;20.76;57.13;100778.09;5081151;28;20432;-72
2022/06/11 00:55:16;;;;;;;7.60;2.47;;;;;;;20.83;56.75;100770.84;5095578;28;20501;-72
2022/06/11 00:57:47;;;;;;;6.33;2.30;;;;;;;20.74;57.00;100772.84;5084583;28;20448;-72
2022/06/11 01:00:19;;;;;;;3.37;2.40;;;;;;;20.64;57.54;100772.34;5078858;28;20482;-72
2022/06/11 01:02:48;;;;;;;4.00;1.93;;;;;;;20.63;57.50;100765.25;5070807;28;20448;-72
2022/06/11 01:05:18;;;;;;;4.53;2.50;;;;;;;20.74;57.29;100766.59;5080028;28;20447;-72
2022/06/11 01:08:04;;;;;;;5.40;2.80;;;;;;;20.81;57.23;100775.63;5079546;28;20474;-73
2022/06/11 01:10:48;;;;;;;4.60;2.53;;;;;;;20.72;57.44;100771.38;5079682;28;20475;-72
2022/06/11 01:13:30;;;;;;;4.30;2.40;;;;;;;20.59;57.86;100770.19;5066567;28;20452;-71
2022/06/11 01:16:01;;;;;;;3.30;2.50;;;;;;;20.65;57.92;100768.59;5059277;28;20870;-72
2022/06/11 01:18:40;;;;;;;5.50;2.73;;;;;;;20.50;58.21;100765.91;5081079;28;20471;-70
2022/06/11 01:21:13;;;;;;;5.20;2.50;;;;;;;20.58;58.08;100768.50;5069879;28;20567;-72
2022/06/11 01:24:22;;;;;;;6.20;2.70;;;;;;;20.49;58.09;100767.78;5060726;28;20538;-71
2022/06/11 01:27:11;;;;;;;5.20;2.70;;;;;;;20.64;58.13;100769.63;5075112;28;20480;-70
2022/06/11 01:29:54;;;;;;;6.50;2.43;;;;;;;20.59;58.12;100763.91;5095619;28;21011;-71
2022/06/11 01:32:26;;;;;;;5.23;2.83;;;;;;;20.44;58.56;100761.25;5088741;28;20476;-72
2022/06/11 01:35:05;;;;;;;7.33;3.17;;;;;;;20.53;58.78;100765.53;5080848;28;20479;-73
2022/06/11 01:37:35;;;;;;;6.97;2.87;;;;;;;20.51;59.14;100762.16;5087905;28;20460;-72
2022/06/11 01:40:05;;;;;;;6.40;3.13;;;;;;;20.52;58.76;100758.44;5080859;28;20482;-68
2022/06/11 01:42:39;;;;;;;7.30;3.40;;;;;;;20.31;59.42;100765.50;5079684;28;20961;-69
2022/06/11 01:45:13;;;;;;;5.10;2.80;;;;;;;20.40;59.55;100759.97;5087178;28;20444;-70
2022/06/11 01:47:40;;;;;;;5.63;2.90;;;;;;;20.30;59.38;100763.81;5088892;28;20467;-70
2022/06/11 01:50:09;;;;;;;5.67;2.77;;;;;;;20.31;59.61;100762.81;5080491;28;20463;-69
2022/06/11 01:53:14;;;;;;;6.53;3.20;;;;;;;20.30;60.01;100765.72;5080011;28;20513;-67
2022/06/11 01:56:01;;;;;;;9.23;3.17;;;;;;;20.34;60.10;100768.88;5078188;28;20484;-71
2022/06/11 01:58:44;;;;;;;8.57;3.57;;;;;;;20.28;60.04;100762.34;5070638;28;20451;-70
2022/06/11 02:01:20;;;;;;;5.67;3.40;;;;;;;20.28;59.88;100767.78;5088983;28;20470;-69
2022/06/11 02:03:52;;;;;;;3.73;2.77;;;;;;;20.29;60.21;100770.31;5101000;28;20482;-69
2022/06/11 02:06:36;;;;;;;6.47;3.60;;;;;;;20.12;60.51;100771.56;5083089;28;20916;-70
2022/06/11 02:09:11;;;;;;;5.60;3.10;;;;;;;20.14;60.54;100764.06;5068935;28;20440;-70
2022/06/11 02:11:40;;;;;;;5.47;3.37;;;;;;;20.19;60.42;100769.75;5056890;28;20988;-69
2022/06/11 02:14:13;;;;;;;4.33;2.97;;;;;;;20.05;60.55;100771.47;5079547;28;20466;-70
2022/06/11 02:16:45;;;;;;;10.23;3.63;;;;;;;20.23;60.43;100767.50;5083592;28;20481;-70
2022/06/11 02:19:16;;;;;;;7.00;2.83;;;;;;;20.25;60.29;100770.88;5088276;28;20786;-70
2022/06/11 02:21:51;;;;;;;5.33;3.00;;;;;;;20.26;60.16;100762.53;5086217;28;20478;-70
2022/06/11 02:24:22;;;;;;;4.97;3.20;;;;;;;20.15;60.41;100767.63;5100801;28;20455;-70
2022/06/11 02:26:52;;;;;;;5.07;2.93;;;;;;;20.12;61.11;100766.97;5081836;28;20483;-70
2022/06/11 02:29:22;;;;;;;5.83;3.33;;;;;;;20.19;60.99;100768.91;5079082;28;20926;-67
2022/06/11 02:31:54;;;;;;;3.93;2.63;;;;;;;19.96;61.58;100766.34;5080144;28;20474;-69
2022/06/11 02:34:22;;;;;;;5.17;3.07;;;;;;;20.03;61.36;100765.41;5080119;28;20463;-70
2022/06/11 02:36:56;;;;;;;5.37;3.07;;;;;;;20.14;61.04;100769.50;5079448;28;20476;-70
2022/06/11 02:39:24;;;;;;;3.43;2.53;;;;;;;20.29;60.76;100772.16;5078265;28;20444;-70
2022/06/11 02:41:51;;;;;;;5.60;2.47;;;;;;;20.04;61.10;100771.66;5073811;28;20905;-69
2022/06/11 02:44:19;;;;;;;8.63;2.80;;;;;;;20.10;61.07;100769.03;5080787;28;20470;-69
2022/06/11 02:46:46;;;;;;;5.50;2.60;;;;;;;20.02;61.44;100771.84;5082988;28;20479;-69
2022/06/11 02:49:19;;;;;;;4.80;2.50;;;;;;;20.06;61.58;100769.59;5085736;28;20455;-70
2022/06/11 02:51:47;;;;;;;6.50;3.33;;;;;;;20.03;61.81;100784.41;5104065;28;20466;-70
2022/06/11 02:54:14;;;;;;;5.67;2.70;;;;;;;19.98;61.96;100773.28;5087170;28;20494;-69
2022/06/11 02:56:42;;;;;;;4.47;3.13;;;;;;;19.91;61.85;100767.75;5102358;28;20497;-73
2022/06/11 02:59:09;;;;;;;5.70;2.80;;;;;;;19.84;61.96;100766.84;5085389;28;20456;-71
2022/06/11 03:01:36;;;;;;;6.23;2.90;;;;;;;19.94;61.95;100770.06;5083040;28;20494;-74
2022/06/11 03:04:04;;;;;;;7.63;3.30;;;;;;;19.94;61.81;100767.34;5083114;28;20516;-71
2022/06/11 03:06:34;;;;;;;4.67;2.77;;;;;;;19.95;62.00;100773.66;5083604;28;20479;-73
2022/06/11 03:09:01;;;;;;;7.30;3.00;;;;;;;19.82;62.59;100777.00;5084123;28;20446;-72
2022/06/11 03:11:28;;;;;;;6.87;3.00;;;;;;;19.89;62.70;100779.81;5080780;28;20471;-71
2022/06/11 03:13:55;;;;;;;7.20;3.00;;;;;;;19.80;63.12;100775.53;5073228;28;20448;-70
2022/06/11 03:16:23;;;;;;;4.40;3.00;;;;;;;19.89;62.92;100772.53;5081874;28;20486;-69
2022/06/11 03:18:50;;;;;;;8.10;2.80;;;;;;;19.80;63.11;100783.69;5072713;28;20431;-70
2022/06/11 03:21:17;;;;;;;4.40;3.20;;;;;;;19.86;63.15;100788.34;5073580;28;20476;-71
2022/06/11 03:23:46;;;;;;;7.87;2.93;;;;;;;19.79;63.57;100785.56;5062723;28;20477;-72
2022/06/11 03:26:13;;;;;;;5.60;2.93;;;;;;;19.88;62.96;100789.84;5080406;28;20467;-70
2022/06/11 03:28:40;;;;;;;4.50;2.83;;;;;;;19.76;63.15;100791.34;5092491;28;20819;-69
2022/06/11 03:31:07;;;;;;;9.27;2.97;;;;;;;19.85;63.56;100787.50;5082551;28;20467;-70
2022/06/11 03:33:35;;;;;;;6.00;2.67;;;;;;;19.72;63.61;100784.56;5086268;28;20457;-69
2022/06/11 03:36:05;;;;;;;8.90;3.43;;;;;;;19.77;63.96;100779.44;5082643;28;20495;-70
2022/06/11 03:38:32;;;;;;;4.93;2.80;;;;;;;19.88;63.57;100795.28;5088339;28;20447;-73
2022/06/11 03:41:01;;;;;;;7.87;3.10;;;;;;;19.96;63.30;100797.03;5081558;28;20486;-73
2022/06/11 03:43:28;;;;;;;5.00;3.27;;;;;;;20.04;63.07;100796.09;5079294;28;20447;-71
2022/06/11 03:45:55;;;;;;;17.60;3.80;;;;;;;19.89;63.61;100807.81;5072293;28;20479;-72
2022/06/11 03:48:22;;;;;;;4.43;2.67;;;;;;;19.77;64.37;100803.03;5090781;28;20456;-71
2022/06/11 03:50:50;;;;;;;4.43;3.07;;;;;;;19.84;64.17;100814.81;5082265;28;20471;-73
2022/06/11 03:53:17;;;;;;;8.40;3.10;;;;;;;19.92;63.84;100820.16;5083368;28;20508;-71
2022/06/11 03:55:45;;;;;;;7.50;3.23;;;;;;;19.88;64.38;100821.56;5082416;28;20472;-72
2022/06/11 03:58:13;;;;;;;9.53;3.67;;;;;;;19.88;64.40;100827.00;5082306;28;20443;-72
2022/06/11 04:03:26;;;;;;;5.07;3.90;;;;;;;19.97;64.41;100827.75;5082858;28;20474;-70
2022/06/11 04:05:56;;;;;;;8.37;4.10;;;;;;;20.08;63.76;100821.81;5081993;28;20533;-73
2022/06/11 04:08:24;;;;;;;6.30;3.07;;;;;;;19.93;64.36;100825.41;5090298;28;20444;-72
2022/06/11 04:10:52;;;;;;;5.13;3.60;;;;;;;19.99;64.21;100828.38;5081770;28;21020;-75
2022/06/11 04:13:21;;;;;;;5.60;3.37;;;;;;;20.10;64.08;100841.47;5082606;28;20460;-73
2022/06/11 04:15:48;;;;;;;9.00;3.13;;;;;;;19.93;64.51;100838.97;5080916;28;20544;-73
2022/06/11 04:18:26;;;;;;;5.33;3.20;;;;;;;20.08;64.21;100838.09;5089682;28;20463;-72
2022/06/11 04:20:53;;;;;;;6.77;3.73;;;;;;;20.11;64.20;100845.88;5093299;28;20474;-70
2022/06/11 04:23:20;;;;;;;9.63;3.97;;;;;;;20.00;64.53;100844.50;5097392;28;20484;-71
2022/06/11 04:25:47;;;;;;;8.83;3.40;;;;;;;20.17;64.37;100853.25;5088859;28;20977;-70
2022/06/11 04:28:14;;;;;;;7.47;4.00;;;;;;;20.32;63.60;100859.50;5071624;28;20464;-71
2022/06/11 04:30:42;;;;;;;6.83;3.83;;;;;;;20.21;64.18;100868.16;5061364;28;20467;-72
2022/06/11 04:33:09;;;;;;;5.73;4.07;;;;;;;20.38;64.04;100863.34;5062471;28;20433;-72
2022/06/11 04:35:35;;;;;;;9.80;3.83;;;;;;;20.54;63.67;100853.31;5063401;28;20468;-66
2022/06/11 04:38:02;;;;;;;7.33;4.20;;;;;;;21.05;62.24;100861.38;5071706;28;20445;-71
2022/06/11 04:40:29;;;;;;;5.87;4.50;;;;;;;21.19;61.41;100859.63;5060999;28;20480;-72
2022/06/11 04:42:56;;;;;;;7.33;4.00;;;;;;;22.31;57.95;100871.53;5061275;28;20446;-72
2022/06/11 04:45:23;;;;;;;5.97;4.50;;;;;;;23.02;55.37;100859.34;5059567;28;20465;-71
2022/06/11 04:47:52;;;;;;;6.57;4.17;;;;;;;22.88;55.56;100872.13;5062318;28;20445;-71
2022/06/11 04:50:19;;;;;;;7.50;4.10;;;;;;;23.26;54.48;100863.38;5060963;28;20451;-71
2022/06/11 04:52:46;;;;;;;5.93;4.03;;;;;;;22.66;56.01;100874.19;5073423;28;20424;-70
2022/06/11 04:55:14;;;;;;;8.20;4.60;;;;;;;22.24;57.67;100866.03;5062082;28;20485;-71
2022/06/11 04:57:43;;;;;;;8.17;4.53;;;;;;;23.64;54.37;100865.47;5073266;28;20448;-71
2022/06/11 05:00:11;;;;;;;8.27;4.37;;;;;;;23.99;52.39;100876.13;5060701;28;20457;-71
2022/06/11 05:02:38;;;;;;;9.70;4.30;;;;;;;22.98;54.43;100867.09;5061500;28;20445;-71
2022/06/11 05:05:08;;;;;;;7.67;4.30;;;;;;;22.97;55.21;100870.91;5061170;28;20527;-70
2022/06/11 05:07:35;;;;;;;6.27;3.90;;;;;;;23.77;52.82;100873.66;5058952;28;20973;-71
2022/06/11 05:10:02;;;;;;;6.23;4.20;;;;;;;23.39;53.51;100884.41;5060339;28;20496;-71
2022/06/11 05:12:29;;;;;;;6.03;3.87;;;;;;;24.46;50.92;100874.09;5060188;28;20492;-70
2022/06/11 05:14:55;;;;;;;4.87;3.43;;;;;;;25.55;47.93;100885.84;5059682;28;20475;-70
2022/06/11 05:17:22;;;;;;;8.10;3.87;;;;;;;25.09;48.35;100883.44;5060657;28;21009;-71
2022/06/11 05:19:49;;;;;;;5.73;2.97;;;;;;;25.39;48.06;100883.66;5059079;28;21315;-74
2022/06/11 05:22:17;;;;;;;6.80;3.80;;;;;;;25.45;47.67;100885.50;5064378;28;20881;-74
2022/06/11 05:24:44;;;;;;;4.50;3.10;;;;;;;25.66;47.06;100886.19;5060819;28;20483;-68
2022/06/11 05:27:14;;;;;;;7.10;4.33;;;;;;;25.29;47.50;100886.91;5062843;28;20846;-71
2022/06/11 05:29:48;;;;;;;7.20;3.70;;;;;;;24.55;49.38;100886.50;5067409;28;20453;-71
2022/06/11 05:32:17;;;;;;;4.00;3.13;;;;;;;24.84;48.83;100877.91;5060527;28;21197;-69
2022/06/11 05:34:46;;;;;;;6.10;3.43;;;;;;;25.19;48.00;100892.00;5063507;28;21016;-72
2022/06/11 05:37:14;;;;;;;7.23;3.50;;;;;;;25.19;48.21;100898.31;5075917;28;20490;-68
2022/06/11 05:39:43;;;;;;;4.57;3.07;;;;;;;25.95;46.08;100897.50;5057325;28;20495;-69
2022/06/11 05:42:10;;;;;;;4.17;2.90;;;;;;;25.88;45.98;100901.13;5059780;28;20480;-70
2022/06/11 05:44:37;;;;;;;3.40;2.53;;;;;;;24.98;47.15;100902.25;5058579;28;20461;-67
2022/06/11 05:47:05;;;;;;;4.90;2.70;;;;;;;25.26;46.85;100900.16;5059232;28;20476;-67
2022/06/11 05:49:37;;;;;;;6.97;3.10;;;;;;;25.74;45.79;100903.16;5057285;28;20444;-68
2022/06/11 05:52:08;;;;;;;6.07;3.30;;;;;;;25.52;46.23;100899.16;5063389;28;20499;-67
2022/06/11 05:54:36;;;;;;;5.30;3.20;;;;;;;25.18;46.81;100890.31;5062073;28;21068;-67
2022/06/11 05:57:06;;;;;;;4.37;2.30;;;;;;;25.25;46.73;100898.47;5061095;28;20520;-67
2022/06/11 05:59:38;;;;;;;3.20;2.37;;;;;;;25.53;45.46;100892.59;5056150;28;20448;-67
2022/06/11 06:02:08;;;;;;;4.13;2.23;;;;;;;26.71;43.45;100895.34;5061904;28;21019;-68
2022/06/11 06:04:35;;;;;;;4.60;2.10;;;;;;;27.94;40.95;100893.00;5072428;28;20456;-66
2022/06/11 06:07:02;;;;;;;5.97;2.60;;;;;;;28.06;40.20;100893.81;5080052;28;20488;-69
2022/06/11 06:09:29;;;;;;;2.83;2.10;;;;;;;27.32;41.26;100899.72;5075236;28;20433;-69
2022/06/11 06:11:56;;;;;;;6.03;2.10;;;;;;;27.05;41.64;100894.63;5072953;28;20483;-68
2022/06/11 06:14:24;;;;;;;4.60;2.30;;;;;;;26.06;43.00;100905.81;5063942;28;20989;-71
2022/06/11 06:16:51;;;;;;;3.67;2.07;;;;;;;25.70;44.65;100901.91;5073685;28;20987;-74
2022/06/11 06:19:18;;;;;;;4.50;2.00;;;;;;;26.16;43.23;100904.44;5080292;28;20447;-73
2022/06/11 06:21:45;;;;;;;3.40;2.13;;;;;;;25.89;44.01;100901.97;5078527;28;20476;-73
2022/06/11 06:24:12;;;;;;;4.87;1.53;;;;;;;27.16;41.23;100906.72;5080284;28;20483;-74
2022/06/11 06:26:40;;;;;;;4.10;1.77;;;;;;;27.17;41.06;100902.91;5082207;28;20503;-71
2022/06/11 06:29:07;;;;;;;5.53;1.73;;;;;;;27.90;39.74;100909.09;5095883;28;20443;-73
2022/06/11 06:31:37;;;;;;;3.83;1.70;;;;;;;27.71;39.43;100905.63;5087924;28;20517;-74
2022/06/11 06:34:04;;;;;;;1.70;1.20;;;;;;;27.48;40.10;100911.09;5079947;28;20460;-74
2022/06/11 06:36:31;;;;;;;2.83;1.23;;;;;;;25.75;42.44;100910.28;5080052;28;20506;-71
2022/06/11 06:38:59;;;;;;;3.23;1.03;;;;;;;26.77;42.13;100916.34;5083628;28;20513;-75
2022/06/11 06:41:26;;;;;;;2.33;1.40;;;;;;;26.66;41.44;100918.84;5070579;28;20484;-74
2022/06/11 06:43:53;;;;;;;2.73;1.33;;;;;;;27.95;39.41;100911.13;5058964;28;21027;-72
2022/06/11 06:46:20;;;;;;;2.30;1.40;;;;;;;28.40;37.71;100907.75;5067731;28;20471;-69
2022/06/11 06:48:48;;;;;;;2.40;1.23;;;;;;;28.91;37.43;100917.00;5082829;28;20447;-72
2022/06/11 06:51:15;;;;;;;2.57;1.23;;;;;;;27.63;38.34;100905.16;5078608;28;20497;-72
2022/06/11 06:53:42;;;;;;;1.97;1.07;;;;;;;26.98;39.94;100920.53;5079625;28;20467;-72
2022/06/11 06:56:10;;;;;;;3.70;1.50;;;;;;;28.25;38.33;100915.66;5078326;28;20503;-72
2022/06/11 06:58:37;;;;;;;3.43;1.40;;;;;;;26.77;40.28;100922.69;5089711;28;20462;-71
2022/06/11 07:01:04;;;;;;;2.30;1.23;;;;;;;26.32;40.84;100917.53;5082360;28;20486;-73
2022/06/11 07:03:31;;;;;;;1.87;0.83;;;;;;;27.34;39.96;100914.09;5079413;28;20458;-73
2022/06/11 07:06:01;;;;;;;2.23;1.30;;;;;;;28.21;38.09;100915.31;5077951;28;20483;-68
2022/06/11 07:08:28;;;;;;;3.30;1.20;;;;;;;27.83;38.21;100904.78;5080595;28;20513;-73
2022/06/11 07:10:55;;;;;;;1.90;1.00;;;;;;;28.97;36.94;100922.63;5078897;28;20479;-72
2022/06/11 07:13:23;;;;;;;3.40;1.50;;;;;;;28.32;36.76;100914.44;5075475;28;20483;-71
2022/06/11 07:15:52;;;;;;;2.57;1.37;;;;;;;27.34;39.21;100927.81;5074168;28;20484;-72
2022/06/11 07:18:24;;;;;;;3.63;1.30;;;;;;;27.75;37.89;100915.06;5076411;28;20482;-71
2022/06/11 07:20:52;;;;;;;3.20;1.27;;;;;;;27.27;39.50;100921.53;5085755;28;20546;-73
2022/06/11 07:23:23;;;;;;;2.43;1.00;;;;;;;27.46;38.79;100919.56;5080990;28;20471;-75
2022/06/11 07:25:52;;;;;;;2.77;1.30;;;;;;;29.28;36.42;100913.84;5079222;28;21011;-72
2022/06/11 07:28:22;;;;;;;1.93;0.80;;;;;;;28.10;37.40;100916.16;5077556;28;20450;-74
2022/06/11 07:30:49;;;;;;;3.03;1.10;;;;;;;29.36;35.67;100914.53;5079567;28;20501;-73
2022/06/11 07:33:24;;;;;;;2.03;1.20;;;;;;;30.72;33.12;100926.97;5087786;28;20447;-75
2022/06/11 07:35:52;;;;;;;2.20;1.10;;;;;;;30.61;32.77;100925.19;5091168;28;20470;-74
2022/06/11 07:38:21;;;;;;;4.20;1.53;;;;;;;30.14;34.60;100931.19;5094766;28;20996;-74
2022/06/11 07:40:48;;;;;;;3.27;1.20;;;;;;;28.44;36.73;100916.34;5087057;28;20506;-74
2022/06/11 07:43:15;;;;;;;4.10;1.30;;;;;;;27.77;38.02;100903.84;5084298;28;20950;-74
2022/06/11 07:45:43;;;;;;;4.37;1.47;;;;;;;29.51;35.92;100917.53;5072389;28;20749;-73
2022/06/11 07:48:11;;;;;;;3.53;1.10;;;;;;;28.29;37.86;100919.59;5088685;28;20452;-71
2022/06/11 07:50:41;;;;;;;3.10;1.27;;;;;;;28.06;38.20;100925.97;5081307;28;20472;-72
2022/06/11 07:53:08;;;;;;;3.63;1.30;;;;;;;29.34;35.65;100922.19;5087148;28;20440;-75
2022/06/11 07:55:38;;;;;;;2.27;1.20;;;;;;;29.11;36.64;100924.84;5080974;28;20971;-75
2022/06/11 07:58:06;;;;;;;3.10;1.43;;;;;;;28.29;37.84;100922.34;5081884;28;20541;-71
2022/06/11 08:00:35;;;;;;;2.70;1.10;;;;;;;28.58;38.05;100923.25;5082921;28;20855;-72
2022/06/11 08:03:02;;;;;;;3.30;1.60;;;;;;;27.10;40.93;100926.03;5082083;28;20443;-73
2022/06/11 08:05:29;;;;;;;1.93;1.20;;;;;;;26.99;40.78;100935.91;5081821;28;20475;-72
2022/06/11 08:07:56;;;;;;;3.27;1.20;;;;;;;25.88;43.55;100933.13;5078119;28;20536;-72
2022/06/11 08:10:25;;;;;;;3.57;1.47;;;;;;;25.57;44.25;100940.34;5074347;28;20465;-74
2022/06/11 08:12:53;;;;;;;2.53;1.50;;;;;;;25.36;45.24;100936.97;5082122;28;20432;-74
2022/06/11 08:15:20;;;;;;;2.77;1.60;;;;;;;24.92;45.53;100927.72;5079818;28;20464;-74
2022/06/11 08:17:47;;;;;;;5.00;1.80;;;;;;;24.20;47.29;100938.72;5082139;28;20498;-71
2022/06/11 08:20:16;;;;;;;4.13;1.80;;;;;;;25.11;45.84;100930.56;5094190;28;20443;-72
2022/06/11 08:22:43;;;;;;;1.93;1.40;;;;;;;24.89;46.77;100939.09;5101429;28;20483;-73
2022/06/11 08:25:10;;;;;;;3.00;1.43;;;;;;;24.59;45.94;100936.94;5085693;28;20456;-71
2022/06/11 08:27:37;;;;;;;3.70;1.90;;;;;;;24.71;46.87;100933.53;5081431;28;20513;-72
2022/06/11 08:30:06;;;;;;;3.83;1.53;;;;;;;26.72;42.37;100950.00;5080379;28;20456;-73
2022/06/11 08:32:33;;;;;;;3.47;1.50;;;;;;;28.29;39.18;100945.16;5080805;28;20456;-71
2022/06/11 08:35:02;;;;;;;3.30;1.27;;;;;;;29.66;36.50;100936.22;5081016;28;20447;-73
2022/06/11 08:37:29;;;;;;;3.50;1.37;;;;;;;29.65;35.45;100938.16;5081350;28;20912;-72
2022/06/11 08:39:56;;;;;;;2.47;1.10;;;;;;;29.52;36.10;100935.72;5081104;28;20525;-72
2022/06/11 08:42:30;;;;;;;4.60;1.20;;;;;;;30.34;35.75;100941.66;5080730;28;20872;-72
2022/06/11 08:44:58;;;;;;;3.87;1.00;;;;;;;27.82;38.87;100941.59;5077457;28;20455;-73
2022/06/11 08:47:30;;;;;;;2.73;1.80;;;;;;;27.37;40.40;100945.72;5086121;28;20520;-72
2022/06/11 08:49:58;;;;;;;3.63;1.40;;;;;;;28.33;37.35;100940.00;5080679;28;20462;-70
2022/06/11 08:52:27;;;;;;;3.43;1.33;;;;;;;27.59;39.30;100943.25;5079799;28;20475;-72
2022/06/11 08:54:53;;;;;;;4.43;1.60;;;;;;;28.34;38.18;100933.44;5080017;28;20456;-71
2022/06/11 08:57:26;;;;;;;2.37;1.10;;;;;;;30.71;34.93;100933.59;5090861;28;20475;-71
2022/06/11 09:00:02;;;;;;;2.53;1.40;;;;;;;29.93;35.48;100935.56;5084190;28;20669;-71
2022/06/11 09:02:42;;;;;;;3.10;1.47;;;;;;;28.63;37.22;100939.03;5079124;28;20478;-71
2022/06/11 09:05:23;;;;;;;3.60;1.60;;;;;;;29.37;36.17;100924.47;5079449;28;20448;-70
2022/06/11 09:07:59;;;;;;;1.90;1.40;;;;;;;29.85;35.39;100929.38;5080039;28;20456;-71
2022/06/11 09:10:50;;;;;;;3.77;1.50;;;;;;;28.33;37.91;100935.38;5085840;28;20533;-71
2022/06/11 09:13:31;;;;;;;3.13;1.57;;;;;;;27.62;39.86;100931.78;5081087;28;20448;-69
2022/06/11 09:16:08;;;;;;;2.17;1.30;;;;;;;27.23;40.96;100945.03;5081056;28;20502;-72
2022/06/11 09:18:56;;;;;;;3.00;1.60;;;;;;;26.16;41.21;100943.66;5076388;28;20618;-70
2022/06/11 09:21:33;;;;;;;3.80;1.20;;;;;;;25.19;42.44;100938.53;5072222;28;20520;-72
2022/06/11 09:24:22;;;;;;;2.63;1.40;;;;;;;24.86;44.11;100939.56;5075337;28;20493;-71
2022/06/11 09:26:55;;;;;;;2.90;1.60;;;;;;;24.86;43.87;100942.28;5077724;28;20709;-73
2022/06/11 09:29:28;;;;;;;2.87;1.57;;;;;;;26.18;43.54;100940.66;5079722;28;20456;-73
2022/06/11 09:32:01;;;;;;;3.43;1.43;;;;;;;27.28;39.52;100936.97;5071089;28;20463;-73
2022/06/11 09:34:33;;;;;;;2.90;1.07;;;;;;;28.52;35.96;100941.56;5064343;28;20512;-73
2022/06/11 09:37:06;;;;;;;3.13;1.27;;;;;;;29.07;36.51;100940.16;5069171;28;20479;-74
2022/06/11 09:39:40;;;;;;;2.40;1.27;;;;;;;29.04;35.08;100946.19;5060235;28;20571;-73
2022/06/11 09:42:49;;;;;;;2.40;1.30;;;;;;;28.36;37.46;100954.13;5073821;28;20511;-71
2022/06/11 09:45:21;;;;;;;3.30;1.20;;;;;;;26.70;38.97;100954.88;5084753;28;20465;-71
2022/06/11 09:47:55;;;;;;;3.40;1.50;;;;;;;27.71;37.94;100935.03;5056568;28;20541;-75
2022/06/11 09:50:26;;;;;;;3.50;0.97;;;;;;;27.50;38.95;100950.16;5056515;28;20436;-75
2022/06/11 09:53:12;;;;;;;3.30;1.40;;;;;;;27.92;37.22;100941.88;5055350;28;20892;-72
2022/06/11 09:55:47;;;;;;;2.70;1.13;;;;;;;28.31;36.17;100944.94;5044013;28;20480;-71
2022/06/11 09:58:21;;;;;;;2.67;1.33;;;;;;;28.14;36.69;100947.56;5068118;28;20483;-71
2022/06/11 10:00:53;;;;;;;2.30;1.20;;;;;;;28.98;35.13;100949.06;5067797;28;21128;-73
2022/06/11 10:03:29;;;;;;;4.30;1.80;;;;;;;28.80;36.08;100944.59;5056046;28;20803;-73
2022/06/11 10:05:58;;;;;;;4.40;1.33;;;;;;;28.13;36.28;100954.16;5055325;28;20488;-73
2022/06/11 10:08:35;;;;;;;4.13;1.60;;;;;;;28.22;36.81;100960.13;5056248;28;20453;-73
2022/06/11 10:11:04;;;;;;;2.47;1.20;;;;;;;28.51;36.71;100956.38;5054903;28;20476;-72
2022/06/11 10:13:38;;;;;;;2.57;1.40;;;;;;;29.42;35.46;100955.66;5053685;28;20441;-70
2022/06/11 10:16:16;;;;;;;3.73;1.40;;;;;;;28.95;34.81;100952.31;5053597;28;20480;-73
2022/06/11 10:18:43;;;;;;;3.20;1.60;;;;;;;29.19;34.47;100951.16;5056058;28;20488;-71
2022/06/11 10:21:13;;;;;;;4.47;1.40;;;;;;;28.24;37.83;100950.56;5055123;28;20634;-72
2022/06/11 10:23:43;;;;;;;2.43;1.00;;;;;;;29.35;35.48;100954.19;5055402;28;20483;-73
2022/06/11 10:26:15;;;;;;;1.93;1.23;;;;;;;30.67;32.65;100946.22;5066451;28;20479;-70
2022/06/11 10:28:45;;;;;;;2.40;1.07;;;;;;;29.39;34.06;100947.94;5065825;28;20859;-75
2022/06/11 10:31:17;;;;;;;5.03;1.60;;;;;;;29.20;35.34;100954.72;5054648;28;20564;-74
2022/06/11 10:33:49;;;;;;;1.70;1.03;;;;;;;28.02;35.59;100950.34;5055977;28;20440;-74
2022/06/11 10:36:22;;;;;;;1.70;1.10;;;;;;;27.10;37.56;100959.81;5054319;28;20566;-73
2022/06/11 10:38:53;;;;;;;2.30;1.27;;;;;;;26.60;39.53;100960.84;5055399;28;20786;-73
2022/06/11 10:41:24;;;;;;;2.70;1.00;;;;;;;28.64;36.82;100957.19;5055169;28;20493;-73
2022/06/11 10:43:54;;;;;;;3.50;1.30;;;;;;;27.65;37.40;100945.03;5053647;28;20449;-66
2022/06/11 10:46:21;;;;;;;2.20;1.07;;;;;;;27.03;38.21;100951.69;5062423;28;20562;-76
2022/06/11 10:48:48;;;;;;;2.30;1.20;;;;;;;27.54;37.90;100952.19;5075930;28;20452;-73
2022/06/11 10:51:19;;;;;;;3.47;1.30;;;;;;;27.80;36.93;100941.84;5074889;28;20476;-73
2022/06/11 10:53:57;;;;;;;4.90;1.13;;;;;;;28.61;36.26;100953.03;5075578;28;21008;-75
2022/06/11 10:56:28;;;;;;;3.00;1.10;;;;;;;26.80;38.59;100951.56;5075193;28;20496;-72
2022/06/11 10:58:58;;;;;;;2.03;1.30;;;;;;;26.01;41.28;100954.13;5076743;28;20571;-74
2022/06/11 11:01:28;;;;;;;2.50;1.17;;;;;;;26.91;39.63;100953.53;5074355;28;21052;-74
2022/06/11 11:03:58;;;;;;;1.87;1.10;;;;;;;25.92;40.81;100942.59;5076094;28;20458;-73
2022/06/11 11:06:30;;;;;;;2.03;1.30;;;;;;;26.56;40.92;100945.09;5076966;28;20536;-74
2022/06/11 11:08:59;;;;;;;3.10;1.57;;;;;;;25.82;41.68;100947.75;5079220;28;21124;-74
2022/06/11 11:11:27;;;;;;;2.57;1.23;;;;;;;25.56;43.15;100947.75;5080002;28;20478;-73
2022/06/11 11:14:05;;;;;;;2.00;1.30;;;;;;;26.48;41.24;100948.97;5076095;28;20462;-73
2022/06/11 11:16:36;;;;;;;2.27;1.30;;;;;;;26.72;40.76;100949.13;5100179;28;20470;-72
2022/06/11 11:19:06;;;;;;;2.80;1.57;;;;;;;26.97;40.00;100955.34;5083129;28;20528;-68
2022/06/11 11:21:36;;;;;;;5.47;1.97;;;;;;;26.92;39.39;100959.84;5085295;28;20482;-68
2022/06/11 11:24:08;;;;;;;7.00;1.50;;;;;;;25.44;42.10;100952.25;5081045;28;20514;-69
2022/06/11 11:26:39;;;;;;;3.17;1.57;;;;;;;25.29;43.10;100954.47;5080432;28;20471;-71
2022/06/11 11:29:09;;;;;;;2.67;1.30;;;;;;;25.22;42.89;100943.53;5079313;28;20456;-67
2022/06/11 11:31:42;;;;;;;3.43;1.50;;;;;;;26.84;41.56;100961.84;5080878;28;20882;-70
2022/06/11 11:34:14;;;;;;;4.30;1.23;;;;;;;27.95;38.30;100947.72;5080998;28;20461;-70
2022/06/11 11:36:43;;;;;;;2.40;1.17;;;;;;;29.70;35.45;100945.66;5079858;28;20510;-70
2022/06/11 11:39:23;;;;;;;2.60;1.00;;;;;;;29.45;34.98;100946.91;5080106;28;21051;-71
2022/06/11 11:41:55;;;;;;;5.10;1.53;;;;;;;28.93;37.61;100947.06;5078445;28;20494;-69